This is the latest recevied weather packets stored in our database for station/object EA1IRT-1. If no packets are shown the sender has not sent any weather packets the latest 10 day(s).
| Time | Temp. | Humidity | Pressure | Rain* | Wind** | Luminosity | Snow |
|---|---|---|---|---|---|---|---|
| 1777878100 | 12.22° C | 87% | 1014.9 hPa | - | - | - | - |
| 1777877175 | 11.67° C | 99% | 1015.1 hPa | - | - | - | - |
| 1777876251 | 11.11° C | 99% | 1014.9 hPa | - | - | - | - |
| 1777875351 | 11.11° C | 100% | 1014.9 hPa | - | - | - | - |
| 1777874450 | 11.11° C | 100% | 1014.7 hPa | - | - | - | - |
| 1777873550 | 11.11° C | 97% | 1014.7 hPa | - | - | - | - |
| 1777872650 | 10.56° C | 94% | 1014.5 hPa | - | - | - | - |
| 1777871750 | 11.11° C | 91% | 1014.5 hPa | - | - | - | - |
| 1777870850 | 10.56° C | 94% | 1014.5 hPa | - | - | - | - |
| 1777869950 | 10° C | 100% | 1014.6 hPa | - | - | - | - |
| 1777869050 | 10° C | 100% | 1014.7 hPa | - | - | - | - |
| 1777868150 | 10° C | 100% | 1014.7 hPa | - | - | - | - |
| 1777867250 | 10° C | 100% | 1014.8 hPa | - | - | - | - |
| 1777866325 | 10° C | 100% | 1014.8 hPa | - | - | - | - |
| 1777865400 | 10° C | 100% | 1014.8 hPa | - | - | - | - |
| 1777864500 | 10.56° C | 99% | 1014.8 hPa | - | - | - | - |
| 1777863600 | 10° C | 100% | 1014.8 hPa | - | - | - | - |
| 1777862700 | 9.44° C | 100% | 1014.9 hPa | - | - | - | - |
| 1777861800 | 10° C | 100% | 1014.9 hPa | - | - | - | - |
| 1777860900 | 10° C | 100% | 1014.9 hPa | - | - | - | - |
| 1777860000 | 10° C | 100% | 1014.9 hPa | - | - | - | - |
| 1777859100 | 10° C | 100% | 1014.9 hPa | - | - | - | - |
| 1777858200 | 10° C | 100% | 1014.9 hPa | - | - | - | - |
| 1777857306 | 10° C | 100% | 1015 hPa | - | - | - | - |
| 1777856400 | 10° C | 100% | 1014.9 hPa | - | - | - | - |
* Rain since midnight (hover to see other rain measurements)
** Current wind speed in m/s (hover to see current wind gust speed)